createdAt,value
2019-05-26T00:00:12.798Z,99.90
2019-05-26T00:02:41.377Z,99.90
2019-05-26T00:05:10.108Z,99.90
2019-05-26T00:07:38.667Z,99.90
2019-05-26T00:10:08.388Z,99.90
2019-05-26T00:12:37.145Z,99.90
2019-05-26T00:15:06.851Z,99.90
2019-05-26T00:17:35.425Z,99.90
2019-05-26T00:20:08.782Z,99.90
2019-05-26T00:22:37.270Z,99.90
2019-05-26T00:25:07.571Z,99.90
2019-05-26T00:27:36.133Z,99.90
2019-05-26T00:30:09.167Z,99.90
2019-05-26T00:32:38.121Z,99.90
2019-05-26T00:35:07.791Z,99.90
2019-05-26T00:37:48.380Z,99.90
2019-05-26T00:40:10.144Z,99.90
2019-05-26T00:42:38.879Z,99.90
2019-05-26T00:45:08.173Z,99.90
2019-05-26T00:47:36.783Z,99.90
2019-05-26T00:50:09.822Z,99.90
2019-05-26T00:52:38.869Z,99.90
2019-05-26T00:55:08.042Z,99.90
2019-05-26T00:57:36.778Z,99.90
2019-05-26T01:00:12.165Z,99.90
2019-05-26T01:02:40.793Z,99.90
2019-05-26T01:05:09.797Z,99.90
2019-05-26T01:07:38.701Z,99.90
2019-05-26T01:10:08.881Z,99.90
2019-05-26T01:12:37.470Z,99.90
2019-05-26T01:15:07.974Z,99.90
2019-05-26T01:17:36.729Z,99.90
2019-05-26T01:20:06.421Z,99.90
2019-05-26T01:22:34.986Z,99.90
2019-05-26T01:25:05.214Z,99.90
2019-05-26T01:27:33.783Z,99.90
2019-05-26T01:30:02.327Z,99.90
2019-05-26T01:32:30.825Z,99.90
2019-05-26T01:34:59.389Z,99.90
2019-05-26T01:37:28.029Z,99.90
2019-05-26T01:39:56.527Z,99.90
2019-05-26T01:42:25.091Z,99.90
2019-05-26T01:44:53.654Z,99.90
2019-05-26T01:47:22.213Z,99.90
2019-05-26T01:49:50.785Z,99.90
2019-05-26T01:52:19.341Z,99.90
2019-05-26T01:54:47.918Z,99.90
2019-05-26T01:57:16.469Z,99.90
2019-05-26T01:59:44.979Z,99.90
2019-05-26T02:02:13.528Z,99.90
2019-05-26T02:04:42.166Z,99.90
2019-05-26T02:07:10.711Z,99.90
2019-05-26T02:09:39.338Z,99.90
2019-05-26T02:12:07.897Z,99.90
2019-05-26T02:14:36.494Z,99.90
2019-05-26T02:17:05.385Z,99.90
2019-05-26T02:19:33.934Z,99.90
2019-05-26T02:22:02.436Z,99.90
2019-05-26T02:24:30.981Z,99.90
2019-05-26T02:26:59.559Z,99.90
2019-05-26T02:29:28.113Z,99.90
2019-05-26T02:31:56.709Z,99.90
2019-05-26T02:34:25.270Z,99.90
2019-05-26T02:36:53.760Z,99.90
2019-05-26T02:39:22.994Z,99.90
2019-05-26T02:41:51.547Z,99.90
2019-05-26T02:44:20.118Z,99.90
2019-05-26T02:46:48.669Z,99.90
2019-05-26T02:49:17.228Z,99.90
2019-05-26T02:51:45.764Z,99.90
2019-05-26T02:54:14.326Z,99.90
2019-05-26T02:56:43.219Z,99.90
2019-05-26T02:59:11.854Z,99.90
2019-05-26T03:02:00.863Z,99.90
2019-05-26T03:04:11.710Z,99.90
2019-05-26T03:06:41.439Z,99.90
2019-05-26T03:09:21.893Z,99.90
2019-05-26T03:11:42.850Z,99.90
2019-05-26T03:14:13.044Z,99.90
2019-05-26T03:16:43.792Z,99.90
2019-05-26T03:19:14.714Z,99.90
2019-05-26T03:21:44.790Z,99.90
2019-05-26T03:24:16.468Z,99.90
2019-05-26T03:26:45.103Z,99.90
2019-05-26T03:29:13.713Z,99.90
2019-05-26T03:31:42.355Z,99.90
2019-05-26T03:34:11.005Z,99.90
2019-05-26T03:36:39.568Z,99.90
2019-05-26T03:39:08.402Z,99.90
2019-05-26T03:41:36.965Z,99.90
2019-05-26T03:44:05.577Z,99.90
2019-05-26T03:46:34.162Z,99.90
2019-05-26T03:49:02.714Z,99.90
2019-05-26T03:51:31.297Z,99.90
2019-05-26T03:53:59.857Z,99.90
2019-05-26T03:56:28.362Z,99.90
2019-05-26T03:58:57.732Z,99.90
2019-05-26T04:01:27.170Z,99.90
2019-05-26T04:03:55.801Z,99.90
2019-05-26T04:06:24.386Z,99.90
2019-05-26T04:08:52.922Z,99.90
2019-05-26T04:11:21.431Z,99.90
2019-05-26T04:13:49.985Z,99.90
2019-05-26T04:16:18.542Z,99.90
2019-05-26T04:18:47.105Z,99.90
2019-05-26T04:21:15.715Z,99.90
2019-05-26T04:23:44.365Z,99.90
2019-05-26T04:26:12.932Z,99.90
2019-05-26T04:28:41.497Z,99.90
2019-05-26T04:31:10.053Z,99.90
2019-05-26T04:33:38.633Z,99.90
2019-05-26T04:36:07.195Z,99.90
2019-05-26T04:38:35.740Z,99.90
2019-05-26T04:41:04.310Z,99.90
2019-05-26T04:43:32.884Z,99.90
2019-05-26T04:46:01.458Z,99.90
2019-05-26T04:48:30.010Z,99.90
2019-05-26T04:50:58.597Z,99.90
2019-05-26T04:53:27.153Z,99.90
2019-05-26T04:55:55.718Z,99.90
2019-05-26T04:58:24.293Z,99.90
2019-05-26T05:00:52.849Z,99.90
2019-05-26T05:03:21.338Z,99.90
2019-05-26T05:05:49.821Z,99.90
2019-05-26T05:08:18.395Z,99.90
2019-05-26T05:10:46.958Z,99.90
2019-05-26T05:13:15.530Z,99.90
2019-05-26T05:15:44.083Z,99.90
2019-05-26T05:18:12.653Z,99.90
2019-05-26T05:20:41.449Z,99.90
2019-05-26T05:23:09.945Z,99.90
2019-05-26T05:25:38.505Z,99.90
2019-05-26T05:28:07.083Z,99.90
2019-05-26T05:30:35.633Z,99.90
2019-05-26T05:33:04.198Z,99.90
2019-05-26T05:35:32.807Z,99.90
2019-05-26T05:38:01.386Z,99.90
2019-05-26T05:40:29.960Z,99.90
2019-05-26T05:42:58.499Z,99.90
2019-05-26T05:45:27.143Z,99.90
2019-05-26T05:47:55.714Z,99.90
2019-05-26T05:50:24.352Z,99.90
2019-05-26T05:52:53.074Z,99.90
2019-05-26T05:55:21.735Z,99.90
2019-05-26T05:57:50.269Z,99.90
2019-05-26T06:00:19.202Z,99.90
2019-05-26T06:02:47.831Z,99.90
2019-05-26T06:05:16.712Z,99.90
2019-05-26T06:07:45.288Z,99.90
2019-05-26T06:10:14.385Z,99.90
2019-05-26T06:12:42.975Z,99.90
2019-05-26T06:15:13.515Z,99.90
2019-05-26T06:17:43.092Z,99.90
2019-05-26T06:20:19.286Z,99.90
2019-05-26T06:22:47.859Z,99.90
2019-05-26T06:25:16.587Z,99.90
2019-05-26T06:27:45.355Z,99.90
2019-05-26T06:30:15.948Z,99.90
2019-05-26T06:32:44.497Z,99.90
2019-05-26T06:35:13.543Z,99.90
2019-05-26T06:37:42.098Z,99.90
2019-05-26T06:40:10.824Z,99.90
2019-05-26T06:42:39.425Z,99.90
2019-05-26T06:45:09.353Z,99.90
2019-05-26T06:47:37.898Z,99.90
2019-05-26T06:50:06.703Z,99.90
2019-05-26T06:52:35.429Z,99.90
2019-05-26T06:55:07.450Z,99.90
2019-05-26T06:57:36.121Z,99.90
2019-05-26T07:00:08.434Z,99.90
2019-05-26T07:02:37.049Z,99.90
2019-05-26T07:05:07.366Z,99.90
2019-05-26T07:07:35.924Z,99.90
2019-05-26T07:10:06.231Z,99.90
2019-05-26T07:12:34.781Z,99.90
2019-05-26T07:15:04.182Z,99.90
2019-05-26T07:17:32.755Z,99.90
2019-05-26T07:20:01.319Z,99.90
2019-05-26T07:22:30.327Z,99.90
2019-05-26T07:24:58.905Z,99.90
2019-05-26T07:27:27.463Z,99.90
2019-05-26T07:29:56.057Z,99.90
2019-05-26T07:32:24.663Z,99.90
2019-05-26T07:34:53.237Z,99.90
2019-05-26T07:37:21.721Z,99.90
2019-05-26T07:39:50.297Z,99.40
2019-05-26T07:42:18.834Z,99.60
2019-05-26T07:44:47.409Z,99.50
2019-05-26T07:47:15.965Z,98.70
2019-05-26T07:49:44.665Z,98.40
2019-05-26T07:52:13.149Z,99.10
2019-05-26T07:54:42.013Z,98.60
2019-05-26T07:57:29.842Z,97.80
2019-05-26T07:59:58.428Z,98.00
2019-05-26T08:02:26.989Z,97.90
2019-05-26T08:04:55.647Z,98.70
2019-05-26T08:07:24.237Z,98.30
2019-05-26T08:09:52.815Z,99.10
2019-05-26T08:12:27.015Z,98.40
2019-05-26T08:14:51.614Z,97.30
2019-05-26T08:17:20.183Z,98.00
2019-05-26T08:19:48.764Z,97.10
2019-05-26T08:22:17.349Z,97.30
2019-05-26T08:24:45.903Z,97.30
2019-05-26T08:27:14.543Z,97.00
2019-05-26T08:29:43.113Z,96.80
2019-05-26T08:32:14.532Z,97.30
2019-05-26T08:34:41.914Z,97.40
2019-05-26T08:37:10.499Z,96.80
2019-05-26T08:39:39.063Z,95.20
2019-05-26T08:42:07.788Z,95.30
2019-05-26T08:44:36.339Z,95.00
2019-05-26T08:47:05.015Z,95.40
2019-05-26T08:49:33.583Z,95.10
2019-05-26T08:52:02.170Z,95.00
2019-05-26T08:54:30.740Z,95.00
2019-05-26T08:56:59.339Z,94.80
2019-05-26T08:59:27.929Z,94.00
2019-05-26T09:01:56.499Z,94.40
2019-05-26T09:04:25.100Z,95.00
2019-05-26T09:06:53.689Z,94.70
2019-05-26T09:09:22.243Z,95.50
2019-05-26T09:11:50.817Z,94.30
2019-05-26T09:14:19.437Z,94.90
2019-05-26T09:16:47.938Z,95.60
2019-05-26T09:19:16.491Z,94.90
2019-05-26T09:21:45.287Z,94.30
2019-05-26T09:24:14.034Z,94.90
2019-05-26T09:26:42.547Z,94.20
2019-05-26T09:29:11.280Z,93.50
2019-05-26T09:31:39.831Z,94.00
2019-05-26T09:34:08.495Z,93.20
2019-05-26T09:36:37.107Z,92.90
2019-05-26T09:39:07.496Z,92.40
2019-05-26T09:41:36.075Z,91.90
2019-05-26T09:44:05.479Z,93.60
2019-05-26T09:46:34.096Z,91.40
2019-05-26T09:49:02.659Z,91.80
2019-05-26T09:51:31.278Z,90.60
2019-05-26T09:54:02.051Z,91.40
2019-05-26T09:56:30.129Z,91.40
2019-05-26T09:58:58.710Z,91.20
2019-05-26T10:01:27.341Z,90.70
2019-05-26T10:03:55.985Z,89.70
2019-05-26T10:06:24.542Z,90.40
2019-05-26T10:08:53.136Z,91.10
2019-05-26T10:11:21.664Z,89.80
2019-05-26T10:13:50.145Z,88.90
2019-05-26T10:16:18.716Z,85.30
2019-05-26T10:18:47.282Z,86.40
2019-05-26T10:21:15.835Z,85.00
2019-05-26T10:23:44.312Z,87.50
2019-05-26T10:26:12.908Z,87.70
2019-05-26T10:28:41.462Z,86.70
2019-05-26T10:31:10.046Z,84.70
2019-05-26T10:33:38.571Z,85.60
2019-05-26T10:36:07.155Z,83.90
2019-05-26T10:38:35.716Z,85.80
2019-05-26T10:41:04.342Z,84.30
2019-05-26T10:43:46.371Z,82.30
2019-05-26T10:46:03.134Z,85.30
2019-05-26T10:48:31.701Z,83.50
2019-05-26T10:51:00.254Z,79.30
2019-05-26T10:53:28.976Z,79.50
2019-05-26T10:55:57.554Z,80.00
2019-05-26T10:58:26.172Z,79.10
2019-05-26T11:00:54.808Z,75.20
2019-05-26T11:03:23.410Z,72.70
2019-05-26T11:05:51.930Z,69.30
2019-05-26T11:08:20.634Z,70.00
2019-05-26T11:10:49.189Z,68.40
2019-05-26T11:13:17.766Z,68.10
2019-05-26T11:15:46.514Z,68.00
2019-05-26T11:18:15.085Z,62.10
2019-05-26T11:20:43.946Z,63.30
2019-05-26T11:23:12.519Z,61.30
2019-05-26T11:25:41.583Z,60.90
2019-05-26T11:28:10.101Z,58.90
2019-05-26T11:30:38.653Z,57.50
2019-05-26T11:33:07.274Z,55.00
2019-05-26T11:35:35.845Z,53.30
2019-05-26T11:38:05.143Z,54.70
2019-05-26T11:40:33.710Z,51.00
2019-05-26T11:43:15.797Z,52.60
2019-05-26T11:45:32.485Z,53.40
2019-05-26T11:48:01.051Z,51.90
2019-05-26T11:50:29.616Z,51.40
2019-05-26T11:52:58.114Z,51.50
2019-05-26T11:55:27.879Z,50.40
2019-05-26T11:57:56.594Z,50.90
2019-05-26T12:00:25.326Z,49.30
2019-05-26T12:02:53.880Z,47.30
2019-05-26T12:05:22.449Z,48.90
2019-05-26T12:07:51.011Z,47.20
2019-05-26T12:10:19.750Z,47.80
2019-05-26T12:12:48.229Z,47.40
2019-05-26T12:15:17.530Z,46.80
2019-05-26T12:17:46.097Z,48.60
2019-05-26T12:20:15.689Z,47.80
2019-05-26T12:22:44.198Z,49.70
2019-05-26T12:25:13.025Z,50.30
2019-05-26T12:27:41.591Z,49.00
2019-05-26T12:30:11.175Z,50.00
2019-05-26T12:32:39.777Z,50.20
2019-05-26T12:35:09.171Z,50.70
2019-05-26T12:37:37.731Z,50.60
2019-05-26T12:40:07.139Z,52.90
2019-05-26T12:42:35.693Z,52.10
2019-05-26T12:45:07.320Z,51.60
2019-05-26T12:47:36.061Z,50.80
2019-05-26T12:50:07.445Z,51.90
2019-05-26T12:52:36.000Z,51.90
2019-05-26T12:55:08.966Z,51.90
2019-05-26T12:57:36.506Z,52.10
2019-05-26T13:00:09.390Z,53.10
2019-05-26T13:02:37.924Z,53.70
2019-05-26T13:05:08.374Z,53.40
2019-05-26T13:07:37.093Z,54.80
2019-05-26T13:10:09.230Z,53.70
2019-05-26T13:12:37.813Z,54.10
2019-05-26T13:15:09.013Z,52.70
2019-05-26T13:17:37.565Z,53.50
2019-05-26T13:20:10.878Z,52.30
2019-05-26T13:22:40.621Z,54.20
2019-05-26T13:25:11.697Z,53.30
2019-05-26T13:27:40.437Z,54.10
2019-05-26T13:30:11.516Z,54.00
2019-05-26T13:32:40.075Z,53.90
2019-05-26T13:35:09.270Z,53.90
2019-05-26T13:37:37.840Z,55.10
2019-05-26T13:40:07.664Z,54.20
2019-05-26T13:42:36.641Z,56.20
2019-05-26T13:45:21.200Z,55.50
2019-05-26T13:47:39.034Z,55.30
2019-05-26T13:50:08.125Z,55.70
2019-05-26T13:52:36.763Z,55.00
2019-05-26T13:55:07.416Z,56.00
2019-05-26T13:57:35.991Z,56.00
2019-05-26T14:00:06.922Z,56.20
2019-05-26T14:02:35.519Z,55.60
2019-05-26T14:05:07.018Z,56.20
2019-05-26T14:07:35.830Z,57.10
2019-05-26T14:10:08.526Z,57.30
2019-05-26T14:12:37.205Z,57.80
2019-05-26T14:15:09.479Z,56.40
2019-05-26T14:17:39.619Z,58.30
2019-05-26T14:20:09.709Z,58.20
2019-05-26T14:22:38.258Z,56.10
2019-05-26T14:25:08.685Z,56.60
2019-05-26T14:27:56.558Z,58.90
2019-05-26T14:30:25.142Z,58.10
2019-05-26T14:32:53.695Z,57.50
2019-05-26T14:35:22.240Z,59.00
2019-05-26T14:38:10.227Z,59.00
2019-05-26T14:40:38.785Z,58.50
2019-05-26T14:43:07.417Z,58.80
2019-05-26T14:45:36.456Z,58.60
2019-05-26T14:48:06.003Z,59.80
2019-05-26T14:50:34.688Z,59.60
2019-05-26T14:53:03.341Z,58.80
2019-05-26T14:55:31.897Z,59.40
2019-05-26T14:58:14.410Z,59.10
2019-05-26T15:00:30.762Z,58.60
2019-05-26T15:02:59.321Z,59.00
2019-05-26T15:05:27.909Z,60.20
2019-05-26T15:07:56.479Z,59.30
2019-05-26T15:10:25.051Z,59.50
2019-05-26T15:12:53.597Z,59.70
2019-05-26T15:15:22.321Z,59.20
2019-05-26T15:17:50.879Z,60.10
2019-05-26T15:20:19.609Z,60.50
2019-05-26T15:22:48.170Z,60.00
2019-05-26T15:25:16.821Z,60.10
2019-05-26T15:27:46.662Z,59.90
2019-05-26T15:30:17.094Z,60.20
2019-05-26T15:32:45.651Z,59.80
2019-05-26T15:35:14.301Z,59.30
2019-05-26T15:37:42.852Z,60.00
2019-05-26T15:40:11.592Z,59.40
2019-05-26T15:42:40.186Z,60.70
2019-05-26T15:45:10.658Z,60.70
2019-05-26T15:47:39.231Z,60.70
2019-05-26T15:50:08.154Z,60.60
2019-05-26T15:52:36.781Z,60.00
2019-05-26T15:55:06.721Z,62.30
2019-05-26T15:57:35.288Z,60.80
2019-05-26T16:00:07.274Z,61.40
2019-05-26T16:02:35.897Z,62.20
2019-05-26T16:05:06.915Z,62.00
2019-05-26T16:07:35.466Z,61.40
2019-05-26T16:10:06.979Z,60.90
2019-05-26T16:12:35.526Z,60.10
2019-05-26T16:15:08.314Z,61.20
2019-05-26T16:17:38.869Z,60.00
2019-05-26T16:20:10.936Z,60.20
2019-05-26T16:22:39.601Z,59.60
2019-05-26T16:25:08.500Z,59.80
2019-05-26T16:27:37.288Z,60.10
2019-05-26T16:30:07.791Z,59.70
2019-05-26T16:32:36.464Z,60.50
2019-05-26T16:35:05.801Z,60.30
2019-05-26T16:37:34.366Z,59.70
2019-05-26T16:40:03.783Z,60.10
2019-05-26T16:42:32.375Z,60.80
2019-05-26T16:45:01.034Z,61.10
2019-05-26T16:47:29.573Z,61.80
2019-05-26T16:49:58.146Z,61.40
2019-05-26T16:52:26.711Z,61.50
2019-05-26T16:54:55.283Z,61.30
2019-05-26T16:57:23.829Z,61.20
2019-05-26T16:59:52.410Z,62.00
2019-05-26T17:02:21.117Z,61.10
2019-05-26T17:04:49.707Z,60.80
2019-05-26T17:07:18.273Z,61.10
2019-05-26T17:09:46.846Z,61.10
2019-05-26T17:12:15.410Z,61.50
2019-05-26T17:14:43.978Z,61.50
2019-05-26T17:17:14.995Z,62.10
2019-05-26T17:19:42.697Z,62.20
2019-05-26T17:22:11.320Z,63.30
2019-05-26T17:24:39.865Z,62.50
2019-05-26T17:27:08.438Z,62.10
2019-05-26T17:29:36.989Z,62.30
2019-05-26T17:32:05.569Z,61.80
2019-05-26T17:34:34.119Z,61.30
2019-05-26T17:37:02.687Z,62.60
2019-05-26T17:39:31.178Z,62.40
2019-05-26T17:41:59.771Z,61.80
2019-05-26T17:44:28.350Z,62.40
2019-05-26T17:46:56.907Z,62.30
2019-05-26T17:49:25.418Z,63.00
2019-05-26T17:51:53.987Z,67.80
2019-05-26T17:54:22.567Z,69.70
2019-05-26T17:56:51.946Z,68.50
2019-05-26T17:59:20.550Z,66.30
2019-05-26T18:01:49.700Z,66.90
2019-05-26T18:04:18.399Z,65.10
2019-05-26T18:06:46.961Z,67.60
2019-05-26T18:09:15.546Z,67.50
2019-05-26T18:11:44.225Z,67.80
2019-05-26T18:14:32.139Z,67.40
2019-05-26T18:17:00.726Z,66.40
2019-05-26T18:19:29.996Z,67.80
2019-05-26T18:21:58.748Z,67.70
2019-05-26T18:24:27.399Z,68.20
2019-05-26T18:26:55.967Z,68.50
2019-05-26T18:29:24.547Z,68.10
2019-05-26T18:31:53.150Z,70.40
2019-05-26T18:34:21.706Z,69.10
2019-05-26T18:36:50.731Z,68.80
2019-05-26T18:39:19.278Z,69.20
2019-05-26T18:41:47.879Z,68.20
2019-05-26T18:44:16.446Z,71.00
2019-05-26T18:46:45.034Z,69.60
2019-05-26T18:49:13.607Z,72.60
2019-05-26T18:51:42.324Z,71.40
2019-05-26T18:54:10.889Z,71.50
2019-05-26T18:56:39.470Z,71.40
2019-05-26T18:59:08.031Z,73.10
2019-05-26T19:01:36.810Z,71.20
2019-05-26T19:04:07.388Z,73.00
2019-05-26T19:06:35.665Z,74.80
2019-05-26T19:09:07.353Z,72.90
2019-05-26T19:11:36.109Z,71.00
2019-05-26T19:14:05.726Z,72.00
2019-05-26T19:16:34.399Z,73.80
2019-05-26T19:19:03.501Z,71.10
2019-05-26T19:21:32.068Z,70.90
2019-05-26T19:24:00.644Z,72.50
2019-05-26T19:26:29.205Z,71.90
2019-05-26T19:28:57.797Z,72.70
2019-05-26T19:31:26.490Z,74.20
2019-05-26T19:33:55.098Z,73.40
2019-05-26T19:36:23.651Z,72.70
2019-05-26T19:38:52.256Z,73.20
2019-05-26T19:41:20.896Z,74.20
2019-05-26T19:43:49.462Z,73.70
2019-05-26T19:46:18.190Z,74.20
2019-05-26T19:48:46.750Z,75.30
2019-05-26T19:51:26.158Z,78.20
2019-05-26T19:53:54.749Z,78.20
2019-05-26T19:56:23.297Z,78.10
2019-05-26T19:58:53.340Z,78.90
2019-05-26T20:01:21.876Z,81.10
2019-05-26T20:03:50.446Z,81.10
2019-05-26T20:06:18.929Z,81.70
2019-05-26T20:08:47.498Z,81.00
2019-05-26T20:11:16.082Z,81.20
2019-05-26T20:13:46.544Z,81.90
2019-05-26T20:16:14.917Z,81.70
2019-05-26T20:18:43.441Z,82.10
2019-05-26T20:21:12.031Z,82.40
2019-05-26T20:23:40.591Z,85.30
2019-05-26T20:26:09.141Z,86.20
2019-05-26T20:28:37.739Z,85.90
2019-05-26T20:31:06.382Z,85.90
2019-05-26T20:33:34.953Z,86.80
2019-05-26T20:36:04.354Z,86.40
2019-05-26T20:38:32.940Z,86.90
2019-05-26T20:41:01.553Z,87.60
2019-05-26T20:43:30.047Z,87.10
2019-05-26T20:45:58.604Z,87.50
2019-05-26T20:48:27.176Z,88.20
2019-05-26T20:50:55.729Z,87.40
2019-05-26T20:53:24.236Z,88.30
2019-05-26T20:55:52.784Z,87.90
2019-05-26T20:58:21.357Z,88.70
2019-05-26T21:00:53.236Z,89.40
2019-05-26T21:03:20.481Z,89.40
2019-05-26T21:05:49.030Z,90.20
2019-05-26T21:08:17.558Z,90.50
2019-05-26T21:10:46.126Z,90.30
2019-05-26T21:13:14.687Z,90.80
2019-05-26T21:15:43.258Z,91.00
2019-05-26T21:18:11.885Z,90.90
2019-05-26T21:20:40.584Z,90.60
2019-05-26T21:23:09.070Z,90.40
2019-05-26T21:25:37.627Z,90.70
2019-05-26T21:28:06.094Z,91.10
2019-05-26T21:30:34.820Z,91.20
2019-05-26T21:33:03.362Z,91.30
2019-05-26T21:35:31.848Z,91.90
2019-05-26T21:38:00.359Z,91.90
2019-05-26T21:40:29.024Z,91.80
2019-05-26T21:42:57.578Z,91.90
2019-05-26T21:45:26.140Z,91.90
2019-05-26T21:47:54.686Z,92.20
2019-05-26T21:50:23.264Z,92.10
2019-05-26T21:52:51.738Z,92.30
2019-05-26T21:55:20.415Z,92.30
2019-05-26T21:57:48.894Z,92.80
2019-05-26T22:00:23.169Z,92.80
2019-05-26T22:02:51.775Z,92.80
2019-05-26T22:05:20.511Z,92.90
2019-05-26T22:07:49.138Z,93.30
2019-05-26T22:10:17.984Z,93.60
2019-05-26T22:12:46.561Z,93.70
2019-05-26T22:15:15.468Z,93.20
2019-05-26T22:17:44.018Z,93.30
2019-05-26T22:20:12.752Z,93.50
2019-05-26T22:22:41.320Z,94.00
2019-05-26T22:25:10.222Z,94.00
2019-05-26T22:27:38.772Z,94.20
2019-05-26T22:30:08.596Z,94.50
2019-05-26T22:32:37.145Z,94.30
2019-05-26T22:35:07.652Z,94.60
2019-05-26T22:37:36.215Z,95.20
2019-05-26T22:40:06.700Z,95.40
2019-05-26T22:42:35.254Z,95.80
2019-05-26T22:45:05.454Z,95.20
2019-05-26T22:47:34.029Z,95.20
2019-05-26T22:50:02.961Z,95.30
2019-05-26T22:52:31.526Z,95.50
2019-05-26T22:55:00.149Z,95.80
2019-05-26T22:57:28.726Z,96.10
2019-05-26T22:59:57.401Z,96.10
2019-05-26T23:02:25.976Z,96.20
2019-05-26T23:04:54.834Z,96.00
2019-05-26T23:07:23.410Z,96.00
2019-05-26T23:09:51.959Z,95.80
2019-05-26T23:12:20.518Z,95.60
2019-05-26T23:14:48.997Z,95.50
2019-05-26T23:17:17.577Z,95.80
2019-05-26T23:19:46.126Z,95.80
2019-05-26T23:22:14.619Z,95.90
2019-05-26T23:24:43.164Z,96.00
2019-05-26T23:27:11.680Z,96.20
2019-05-26T23:29:40.236Z,96.10
2019-05-26T23:32:08.809Z,96.30
2019-05-26T23:34:37.373Z,96.40
2019-05-26T23:37:06.113Z,96.60
2019-05-26T23:39:34.665Z,96.40
2019-05-26T23:42:03.238Z,96.40
2019-05-26T23:44:31.782Z,96.50
2019-05-26T23:47:00.346Z,96.30
2019-05-26T23:49:28.901Z,96.20
2019-05-26T23:51:57.472Z,96.40
2019-05-26T23:54:26.293Z,96.50
2019-05-26T23:56:54.873Z,96.60
2019-05-26T23:59:23.421Z,96.90
